createdAt,value
2018-11-07T00:01:17.255Z,68.77
2018-11-07T00:03:48.741Z,65.83
2018-11-07T00:06:17.611Z,65.60
2018-11-07T00:08:46.460Z,71.63
2018-11-07T00:11:15.302Z,71.47
2018-11-07T00:16:57.154Z,70.77
2018-11-07T00:19:26.023Z,65.87
2018-11-07T00:21:55.009Z,66.23
2018-11-07T00:24:23.945Z,66.30
2018-11-07T00:26:52.841Z,69.07
2018-11-07T00:29:21.780Z,64.20
2018-11-07T00:31:51.082Z,69.23
2018-11-07T00:34:19.963Z,68.07
2018-11-07T00:36:48.781Z,68.30
2018-11-07T00:39:17.654Z,69.53
2018-11-07T00:41:46.497Z,66.53
2018-11-07T00:44:15.401Z,66.80
2018-11-07T00:46:44.271Z,70.33
2018-11-07T00:49:13.384Z,67.07
2018-11-07T00:51:42.486Z,64.63
2018-11-07T00:54:11.389Z,64.93
2018-11-07T00:56:40.327Z,66.83
2018-11-07T00:59:09.586Z,63.20
2018-11-07T01:01:38.717Z,65.97
2018-11-07T01:04:08.281Z,67.20
2018-11-07T01:06:37.204Z,66.10
2018-11-07T01:09:11.684Z,65.53
2018-11-07T01:11:41.574Z,67.03
2018-11-07T01:14:10.904Z,66.53
2018-11-07T01:16:39.975Z,63.17
2018-11-07T01:19:09.569Z,64.03
2018-11-07T01:21:38.411Z,62.87
2018-11-07T01:24:07.299Z,59.10
2018-11-07T01:26:36.215Z,63.10
2018-11-07T01:29:05.219Z,63.50
2018-11-07T01:31:35.667Z,68.70
2018-11-07T01:34:04.515Z,65.67
2018-11-07T01:36:33.516Z,66.63
2018-11-07T01:39:02.536Z,66.07
2018-11-07T01:41:31.336Z,65.53
2018-11-07T01:44:00.145Z,64.33
2018-11-07T01:46:29.033Z,65.53
2018-11-07T01:48:57.915Z,63.77
2018-11-07T01:51:26.731Z,65.87
2018-11-07T01:53:55.864Z,67.83
2018-11-07T01:56:24.655Z,67.80
2018-11-07T01:58:53.519Z,68.77
2018-11-07T02:01:22.374Z,67.10
2018-11-07T02:03:51.329Z,68.07
2018-11-07T02:06:20.367Z,72.27
2018-11-07T02:08:49.282Z,70.47
2018-11-07T02:11:18.230Z,68.03
2018-11-07T02:13:47.194Z,64.67
2018-11-07T02:16:16.062Z,64.63
2018-11-07T02:18:45.003Z,64.17
2018-11-07T02:21:13.910Z,65.23
2018-11-07T02:23:43.044Z,66.60
2018-11-07T02:26:11.891Z,69.20
2018-11-07T02:28:40.807Z,67.00
2018-11-07T02:31:09.600Z,74.50
2018-11-07T02:33:38.473Z,74.27
2018-11-07T02:36:07.559Z,74.27
2018-11-07T02:38:36.517Z,73.30
2018-11-07T02:41:05.661Z,75.83
2018-11-07T02:43:34.557Z,73.00
2018-11-07T02:46:03.509Z,74.37
2018-11-07T02:48:36.399Z,71.73
2018-11-07T02:51:05.460Z,70.93
2018-11-07T02:53:34.381Z,70.27
2018-11-07T02:56:03.335Z,69.53
2018-11-07T02:58:32.516Z,64.63
2018-11-07T03:01:01.883Z,71.57
2018-11-07T03:03:31.675Z,74.17
2018-11-07T03:06:00.612Z,70.67
2018-11-07T03:08:32.338Z,68.03
2018-11-07T03:11:02.785Z,67.10
2018-11-07T03:13:32.071Z,68.63
2018-11-07T03:16:01.155Z,73.67
2018-11-07T03:18:30.906Z,73.00
2018-11-07T03:21:00.025Z,68.70
2018-11-07T03:23:28.895Z,66.87
2018-11-07T03:25:57.678Z,66.33
2018-11-07T03:28:26.582Z,69.30
2018-11-07T03:30:55.730Z,69.40
2018-11-07T03:33:24.712Z,72.57
2018-11-07T03:35:53.726Z,71.07
2018-11-07T03:38:23.027Z,72.77
2018-11-07T03:40:51.901Z,70.27
2018-11-07T03:43:20.750Z,67.50
2018-11-07T03:45:54.825Z,69.83
2018-11-07T03:48:23.727Z,71.80
2018-11-07T03:50:52.719Z,72.83
2018-11-07T03:53:21.690Z,72.70
2018-11-07T03:55:50.492Z,70.73
2018-11-07T03:58:19.311Z,73.27
2018-11-07T04:00:48.299Z,73.53
2018-11-07T04:03:17.186Z,77.63
2018-11-07T04:05:53.534Z,74.53
2018-11-07T04:08:23.005Z,75.43
2018-11-07T04:10:51.853Z,73.37
2018-11-07T04:13:20.688Z,75.83
2018-11-07T04:15:49.532Z,71.87
2018-11-07T04:18:18.405Z,75.57
2018-11-07T04:20:47.533Z,76.23
2018-11-07T04:23:16.481Z,74.00
2018-11-07T04:25:45.316Z,77.70
2018-11-07T04:28:14.239Z,74.67
2018-11-07T04:30:43.063Z,76.77
2018-11-07T04:33:11.968Z,78.70
2018-11-07T04:35:40.727Z,81.50
2018-11-07T04:38:09.555Z,75.07
2018-11-07T04:40:38.426Z,72.83
2018-11-07T04:43:07.554Z,70.50
2018-11-07T04:45:36.678Z,72.53
2018-11-07T04:48:10.647Z,77.63
2018-11-07T04:50:39.563Z,78.97
2018-11-07T04:53:08.966Z,82.90
2018-11-07T04:55:37.863Z,83.57
2018-11-07T04:58:06.778Z,83.17
2018-11-07T05:00:35.685Z,88.70
2018-11-07T05:03:04.808Z,82.10
2018-11-07T05:05:34.079Z,77.07
2018-11-07T05:08:02.927Z,82.13
2018-11-07T05:10:31.838Z,79.03
2018-11-07T05:13:01.001Z,82.73
2018-11-07T05:15:29.891Z,82.77
2018-11-07T05:17:58.787Z,80.67
2018-11-07T05:20:27.847Z,78.47
2018-11-07T05:22:59.266Z,82.50
2018-11-07T05:25:28.131Z,82.33
2018-11-07T05:27:57.078Z,83.20
2018-11-07T05:30:25.977Z,83.50
2018-11-07T05:32:54.785Z,82.27
2018-11-07T05:35:23.696Z,84.33
2018-11-07T05:37:52.744Z,86.43
2018-11-07T05:40:21.992Z,85.07
2018-11-07T05:42:50.867Z,84.97
2018-11-07T05:45:19.768Z,89.00
2018-11-07T05:47:48.648Z,80.93
2018-11-07T05:50:17.983Z,79.40
2018-11-07T05:52:46.826Z,78.27
2018-11-07T05:55:15.607Z,77.47
2018-11-07T05:57:44.404Z,82.30
2018-11-07T06:00:13.301Z,77.00
2018-11-07T06:02:42.279Z,79.63
2018-11-07T06:05:12.247Z,83.53
2018-11-07T06:07:41.852Z,81.10
2018-11-07T06:10:12.558Z,83.93
2018-11-07T06:12:41.942Z,82.53
2018-11-07T06:15:12.303Z,82.90
2018-11-07T06:17:41.157Z,84.40
2018-11-07T06:20:11.780Z,79.73
2018-11-07T06:22:40.732Z,80.43
2018-11-07T06:25:09.676Z,80.60
2018-11-07T06:27:38.645Z,79.63
2018-11-07T06:30:10.800Z,80.93
2018-11-07T06:32:39.732Z,81.43
2018-11-07T06:35:09.558Z,80.27
2018-11-07T06:37:38.528Z,79.87
2018-11-07T06:40:09.341Z,76.73
2018-11-07T06:42:38.200Z,78.90
2018-11-07T06:45:07.968Z,75.53
2018-11-07T06:47:36.766Z,74.23
2018-11-07T06:50:07.729Z,72.60
2018-11-07T06:52:36.548Z,70.67
2018-11-07T06:55:06.164Z,72.00
2018-11-07T06:57:35.542Z,70.90
2018-11-07T07:00:04.697Z,69.07
2018-11-07T07:02:33.576Z,74.33
2018-11-07T07:05:02.596Z,61.80
2018-11-07T07:07:33.216Z,66.03
2018-11-07T07:10:02.887Z,60.67
2018-11-07T07:12:31.884Z,56.93
2018-11-07T07:15:00.918Z,59.10
2018-11-07T07:17:29.948Z,57.63
2018-11-07T07:19:58.806Z,54.67
2018-11-07T07:22:28.333Z,50.77
2018-11-07T07:24:58.286Z,53.77
2018-11-07T07:27:27.470Z,50.47
2018-11-07T07:29:59.195Z,50.93
2018-11-07T07:32:28.428Z,47.23
2018-11-07T07:34:57.344Z,45.63
2018-11-07T07:37:26.196Z,46.47
2018-11-07T07:39:55.007Z,49.20
2018-11-07T07:42:23.936Z,48.47
2018-11-07T07:44:56.689Z,46.57
2018-11-07T07:47:25.928Z,47.70
2018-11-07T07:49:54.959Z,44.13
2018-11-07T07:52:26.601Z,44.77
2018-11-07T07:57:45.744Z,43.57
2018-11-07T08:00:16.049Z,43.63
2018-11-07T08:02:46.496Z,42.53
2018-11-07T08:05:15.489Z,41.33
2018-11-07T08:07:44.756Z,41.00
2018-11-07T08:10:15.831Z,39.00
2018-11-07T08:12:45.640Z,40.00
2018-11-07T08:15:15.446Z,41.07
2018-11-07T08:17:44.831Z,40.40
2018-11-07T08:20:15.067Z,41.17
2018-11-07T08:22:44.879Z,38.73
2018-11-07T08:25:13.843Z,39.63
2018-11-07T08:27:42.743Z,40.93
2018-11-07T08:30:14.509Z,37.50
2018-11-07T08:32:43.503Z,39.30
2018-11-07T08:35:13.623Z,40.87
2018-11-07T08:37:43.461Z,37.30
2018-11-07T08:40:15.230Z,39.60
2018-11-07T08:42:44.301Z,39.27
2018-11-07T08:45:17.814Z,39.63
2018-11-07T08:47:47.359Z,36.53
2018-11-07T08:50:17.708Z,36.50
2018-11-07T08:52:47.484Z,40.00
2018-11-07T08:55:19.630Z,36.13
2018-11-07T08:57:48.566Z,36.93
2018-11-07T09:00:19.838Z,39.03
2018-11-07T09:02:48.775Z,37.90
2018-11-07T09:05:18.504Z,36.37
2018-11-07T09:07:48.017Z,33.90
2018-11-07T09:10:18.489Z,32.97
2018-11-07T09:12:47.995Z,34.70
2018-11-07T09:15:18.264Z,32.77
2018-11-07T09:17:47.200Z,34.10
2018-11-07T09:20:18.957Z,32.70
2018-11-07T09:22:47.817Z,33.10
2018-11-07T09:25:17.201Z,33.13
2018-11-07T09:27:46.559Z,33.23
2018-11-07T09:30:16.932Z,30.60
2018-11-07T09:32:46.035Z,30.73
2018-11-07T09:35:15.231Z,30.93
2018-11-07T09:37:44.263Z,30.03
2018-11-07T09:40:15.069Z,29.30
2018-11-07T09:42:45.940Z,30.93
2018-11-07T09:45:16.233Z,32.00
2018-11-07T09:47:45.876Z,29.37
2018-11-07T09:50:15.996Z,28.97
2018-11-07T09:52:45.459Z,29.43
2018-11-07T09:55:16.728Z,30.60
2018-11-07T09:57:45.979Z,28.97
2018-11-07T10:00:17.519Z,30.43
2018-11-07T10:02:47.538Z,28.90
2018-11-07T10:05:19.005Z,29.33
2018-11-07T10:07:48.101Z,29.87
2018-11-07T10:10:19.453Z,29.20
2018-11-07T10:12:48.471Z,28.97
2018-11-07T10:15:18.741Z,27.97
2018-11-07T10:17:47.759Z,27.30
2018-11-07T10:20:18.472Z,26.70
2018-11-07T10:22:47.874Z,26.20
2018-11-07T10:25:16.892Z,27.57
2018-11-07T10:27:46.237Z,26.40
2018-11-07T10:30:21.129Z,25.87
2018-11-07T10:32:50.984Z,27.47
2018-11-07T10:35:19.978Z,27.20
2018-11-07T10:37:49.197Z,27.27
2018-11-07T10:40:22.009Z,26.43
2018-11-07T10:42:52.338Z,25.17
2018-11-07T10:45:21.456Z,27.27
2018-11-07T10:47:51.629Z,27.27
2018-11-07T10:50:22.505Z,25.53
2018-11-07T10:52:52.044Z,24.50
2018-11-07T10:55:20.978Z,24.57
2018-11-07T10:57:49.957Z,22.20
2018-11-07T11:00:27.710Z,23.73
2018-11-07T11:03:07.772Z,23.37
2018-11-07T11:05:36.853Z,22.77
2018-11-07T11:08:06.208Z,23.27
2018-11-07T11:10:35.107Z,23.97
2018-11-07T11:13:04.069Z,23.87
2018-11-07T11:15:33.324Z,22.07
2018-11-07T11:18:02.411Z,23.53
2018-11-07T11:20:31.445Z,22.77
2018-11-07T11:23:00.481Z,22.57
2018-11-07T11:25:29.674Z,22.20
2018-11-07T11:27:58.705Z,21.70
2018-11-07T11:30:27.571Z,21.93
2018-11-07T11:32:56.564Z,20.83
2018-11-07T11:35:25.579Z,21.67
2018-11-07T11:37:54.596Z,22.60
2018-11-07T11:40:23.594Z,22.23
2018-11-07T11:42:53.403Z,22.30
2018-11-07T11:48:13.028Z,21.33
2018-11-07T11:50:41.901Z,19.77
2018-11-07T11:53:10.741Z,20.23
2018-11-07T11:55:39.715Z,20.13
2018-11-07T11:58:08.647Z,21.37
2018-11-07T12:00:37.452Z,21.40
2018-11-07T12:03:06.556Z,21.33
2018-11-07T12:05:35.428Z,21.33
2018-11-07T12:08:04.386Z,21.60
2018-11-07T12:10:33.305Z,21.57
2018-11-07T12:13:03.669Z,20.00
2018-11-07T12:15:33.593Z,20.20
2018-11-07T12:18:03.905Z,19.53
2018-11-07T12:20:32.921Z,20.60
2018-11-07T12:23:04.586Z,20.10
2018-11-07T12:25:34.327Z,21.77
2018-11-07T12:28:03.163Z,20.67
2018-11-07T12:30:32.179Z,20.77
2018-11-07T12:33:01.540Z,19.07
2018-11-07T12:35:30.459Z,20.33
2018-11-07T12:38:00.444Z,21.50
2018-11-07T12:40:29.282Z,20.53
2018-11-07T12:42:58.186Z,20.10
2018-11-07T12:45:27.123Z,19.43
2018-11-07T12:47:56.043Z,20.20
2018-11-07T12:50:25.574Z,20.30
2018-11-07T12:52:54.427Z,20.00
2018-11-07T12:55:23.909Z,20.40
2018-11-07T12:57:52.840Z,21.77
2018-11-07T13:00:23.209Z,20.57
2018-11-07T13:02:57.276Z,21.83
2018-11-07T13:05:26.976Z,20.37
2018-11-07T13:07:57.060Z,20.37
2018-11-07T13:10:25.961Z,21.70
2018-11-07T13:12:55.500Z,20.00
2018-11-07T13:15:24.505Z,20.80
2018-11-07T13:17:53.638Z,21.27
2018-11-07T13:20:25.209Z,21.73
2018-11-07T13:22:54.784Z,21.10
2018-11-07T13:25:24.336Z,22.73
2018-11-07T13:27:53.305Z,22.17
2018-11-07T13:30:22.962Z,23.10
2018-11-07T13:32:53.431Z,23.53
2018-11-07T13:35:22.672Z,22.23
2018-11-07T13:37:57.631Z,23.40
2018-11-07T13:40:27.060Z,23.67
2018-11-07T13:42:56.010Z,23.30
2018-11-07T13:45:24.916Z,24.53
2018-11-07T13:47:54.795Z,25.33
2018-11-07T13:50:23.699Z,24.70
2018-11-07T13:52:55.409Z,24.43
2018-11-07T13:55:24.649Z,26.40
2018-11-07T13:57:54.092Z,25.07
2018-11-07T14:00:24.426Z,25.20
2018-11-07T14:02:54.320Z,25.30
2018-11-07T14:05:23.283Z,25.37
2018-11-07T14:07:52.285Z,24.87
2018-11-07T14:10:24.529Z,24.47
2018-11-07T14:12:53.962Z,25.37
2018-11-07T14:15:23.186Z,24.37
2018-11-07T14:17:52.272Z,25.30
2018-11-07T14:20:26.703Z,24.17
2018-11-07T14:22:55.527Z,24.73
2018-11-07T14:25:24.776Z,24.40
2018-11-07T14:27:53.858Z,23.67
2018-11-07T14:30:22.606Z,23.87
2018-11-07T14:32:58.270Z,24.10
2018-11-07T14:35:27.369Z,24.17
2018-11-07T14:37:58.219Z,24.13
2018-11-07T14:40:27.208Z,24.97
2018-11-07T14:42:56.100Z,24.93
2018-11-07T14:45:25.034Z,23.93
2018-11-07T14:47:54.147Z,24.07
2018-11-07T14:50:23.152Z,24.77
2018-11-07T14:52:52.126Z,23.80
2018-11-07T14:55:21.046Z,23.50
2018-11-07T14:57:50.059Z,23.57
2018-11-07T15:00:19.305Z,24.80
2018-11-07T15:02:48.503Z,24.60
2018-11-07T15:05:19.059Z,25.13
2018-11-07T15:07:47.945Z,24.10
2018-11-07T15:10:17.725Z,24.00
2018-11-07T15:12:46.519Z,23.50
2018-11-07T15:15:16.765Z,24.80
2018-11-07T15:17:45.709Z,24.23
2018-11-07T15:20:15.873Z,25.67
2018-11-07T15:22:44.942Z,25.47
2018-11-07T15:25:15.120Z,24.40
2018-11-07T15:27:45.512Z,25.30
2018-11-07T15:30:15.353Z,25.57
2018-11-07T15:32:44.677Z,26.53
2018-11-07T15:35:14.088Z,25.13
2018-11-07T15:37:43.354Z,24.87
2018-11-07T15:40:15.840Z,25.87
2018-11-07T15:42:45.357Z,27.67
2018-11-07T15:45:16.540Z,24.17
2018-11-07T15:47:45.529Z,26.70
2018-11-07T15:50:19.632Z,25.13
2018-11-07T15:52:48.897Z,24.57
2018-11-07T15:55:18.104Z,26.83
2018-11-07T15:57:47.040Z,25.37
2018-11-07T16:00:17.556Z,27.13
2018-11-07T16:02:46.414Z,29.80
2018-11-07T16:05:16.135Z,28.53
2018-11-07T16:07:45.072Z,29.13
2018-11-07T16:10:15.116Z,32.00
2018-11-07T16:12:44.102Z,45.43
2018-11-07T16:15:14.892Z,36.47
2018-11-07T16:17:44.362Z,110.23
2018-11-07T16:20:20.235Z,40.63
2018-11-07T16:22:49.775Z,47.33
2018-11-07T16:25:18.690Z,39.70
2018-11-07T16:27:47.697Z,36.33
2018-11-07T16:30:18.337Z,35.73
2018-11-07T16:32:47.247Z,38.20
2018-11-07T16:35:16.872Z,49.27
2018-11-07T16:37:46.798Z,84.60
2018-11-07T16:40:16.998Z,38.00
2018-11-07T16:42:46.296Z,37.60
2018-11-07T16:45:16.361Z,34.93
2018-11-07T16:47:47.439Z,41.17
2018-11-07T16:50:17.301Z,41.57
2018-11-07T16:55:36.840Z,36.67
2018-11-07T16:58:05.906Z,37.70
2018-11-07T17:00:35.059Z,36.53
2018-11-07T17:03:03.921Z,74.37
2018-11-07T17:05:32.998Z,40.03
2018-11-07T17:08:02.089Z,39.33
2018-11-07T17:10:33.378Z,454.20
2018-11-07T17:13:02.407Z,671.57
2018-11-07T17:15:31.578Z,437.30
2018-11-07T17:18:00.378Z,83.73
2018-11-07T17:20:29.788Z,76.47
2018-11-07T17:22:58.743Z,46.80
2018-11-07T17:25:27.715Z,42.97
2018-11-07T17:27:56.841Z,46.97
2018-11-07T17:30:25.874Z,97.27
2018-11-07T17:32:54.827Z,46.57
2018-11-07T17:35:23.720Z,73.80
2018-11-07T17:37:53.769Z,108.87
2018-11-07T17:40:23.977Z,79.37
2018-11-07T17:42:53.611Z,46.17
2018-11-07T17:45:23.344Z,47.60
2018-11-07T17:47:53.132Z,48.47
2018-11-07T17:50:22.757Z,48.03
2018-11-07T17:52:52.672Z,48.83
2018-11-07T17:55:22.398Z,45.83
2018-11-07T17:57:51.457Z,48.80
2018-11-07T18:00:21.800Z,48.50
2018-11-07T18:02:50.846Z,48.57
2018-11-07T18:05:19.817Z,50.23
2018-11-07T18:07:48.698Z,45.57
2018-11-07T18:10:18.622Z,48.30
2018-11-07T18:12:47.800Z,51.83
2018-11-07T18:15:16.721Z,49.93
2018-11-07T18:17:45.610Z,50.10
2018-11-07T18:20:15.537Z,48.67
2018-11-07T18:22:44.370Z,56.27
2018-11-07T18:25:14.513Z,53.60
2018-11-07T18:27:43.736Z,49.80
2018-11-07T18:30:14.228Z,53.63
2018-11-07T18:32:43.473Z,50.57
2018-11-07T18:35:14.278Z,50.00
2018-11-07T18:37:43.554Z,55.60
2018-11-07T18:40:14.098Z,54.10
2018-11-07T18:42:43.059Z,54.40
2018-11-07T18:45:12.921Z,51.30
2018-11-07T18:47:43.079Z,50.70
2018-11-07T18:50:13.672Z,53.47
2018-11-07T18:52:42.649Z,51.43
2018-11-07T18:55:12.991Z,118.37
2018-11-07T18:57:42.509Z,59.73
2018-11-07T19:00:14.794Z,51.23
2018-11-07T19:02:44.140Z,53.13
2018-11-07T19:05:13.367Z,49.40
2018-11-07T19:07:42.508Z,48.80
2018-11-07T19:10:14.600Z,51.00
2018-11-07T19:12:43.915Z,49.57
2018-11-07T19:15:14.853Z,55.43
2018-11-07T19:17:44.905Z,61.13
2018-11-07T19:20:15.410Z,62.13
2018-11-07T19:22:54.070Z,66.33
2018-11-07T19:25:23.028Z,53.37
2018-11-07T19:27:53.662Z,57.00
2018-11-07T19:30:24.725Z,58.13
2018-11-07T19:32:54.425Z,54.57
2018-11-07T19:35:23.682Z,55.63
2018-11-07T19:37:53.082Z,57.87
2018-11-07T19:40:24.246Z,55.33
2018-11-07T19:42:53.417Z,55.50
2018-11-07T19:45:22.931Z,55.20
2018-11-07T19:47:51.971Z,58.70
2018-11-07T19:50:21.529Z,51.13
2018-11-07T19:52:51.008Z,67.57
2018-11-07T19:55:21.506Z,67.20
2018-11-07T19:57:53.610Z,65.93
2018-11-07T20:00:23.056Z,64.77
2018-11-07T20:02:51.975Z,59.50
2018-11-07T20:05:21.679Z,55.90
2018-11-07T20:07:52.419Z,53.37
2018-11-07T20:10:22.216Z,57.70
2018-11-07T20:12:51.082Z,64.60
2018-11-07T20:15:21.163Z,59.10
2018-11-07T20:17:50.282Z,54.90
2018-11-07T20:20:19.216Z,54.50
2018-11-07T20:22:48.651Z,53.50
2018-11-07T20:25:17.539Z,51.93
2018-11-07T20:27:47.370Z,51.03
2018-11-07T20:30:17.875Z,52.73
2018-11-07T20:32:46.719Z,49.60
2018-11-07T20:35:17.154Z,48.13
2018-11-07T20:37:46.664Z,48.60
2018-11-07T20:40:19.911Z,47.70
2018-11-07T20:42:48.932Z,46.70
2018-11-07T20:45:18.826Z,48.67
2018-11-07T20:47:47.791Z,51.43
2018-11-07T20:50:18.054Z,48.37
2018-11-07T20:52:47.435Z,49.47
2018-11-07T20:55:17.074Z,48.07
2018-11-07T20:57:45.975Z,49.37
2018-11-07T21:00:18.155Z,46.60
2018-11-07T21:02:47.533Z,46.60
2018-11-07T21:05:16.828Z,48.93
2018-11-07T21:07:45.797Z,49.67
2018-11-07T21:10:17.216Z,52.07
2018-11-07T21:12:46.366Z,52.00
2018-11-07T21:15:16.487Z,49.93
2018-11-07T21:17:46.354Z,49.30
2018-11-07T21:20:15.449Z,49.40
2018-11-07T21:22:44.690Z,51.97
2018-11-07T21:25:14.245Z,53.30
2018-11-07T21:27:43.700Z,50.17
2018-11-07T21:30:14.059Z,53.13
2018-11-07T21:32:43.220Z,51.80
2018-11-07T21:35:12.334Z,52.23
2018-11-07T21:37:41.525Z,52.67
2018-11-07T21:40:12.194Z,52.23
2018-11-07T21:42:40.954Z,53.30
2018-11-07T21:45:11.894Z,53.33
2018-11-07T21:47:41.385Z,54.70
2018-11-07T21:50:11.887Z,55.03
2018-11-07T21:52:40.979Z,58.70
2018-11-07T21:55:09.902Z,55.87
2018-11-07T21:57:39.520Z,55.20
2018-11-07T22:02:59.427Z,57.53
2018-11-07T22:05:28.269Z,55.20
2018-11-07T22:07:57.258Z,49.33
2018-11-07T22:10:26.096Z,53.93
2018-11-07T22:12:54.970Z,72.20
2018-11-07T22:15:23.911Z,61.97
2018-11-07T22:17:52.821Z,65.07
2018-11-07T22:20:22.919Z,62.07
2018-11-07T22:22:51.807Z,54.97
2018-11-07T22:25:20.851Z,56.70
2018-11-07T22:27:49.848Z,57.90
2018-11-07T22:30:19.046Z,57.67
2018-11-07T22:32:47.874Z,57.43
2018-11-07T22:35:18.052Z,57.83
2018-11-07T22:37:47.480Z,58.03
2018-11-07T22:40:17.504Z,58.07
2018-11-07T22:42:46.573Z,59.93
2018-11-07T22:45:15.847Z,59.10
2018-11-07T22:47:44.817Z,57.50
2018-11-07T22:50:14.749Z,60.40
2018-11-07T22:52:44.448Z,60.47
2018-11-07T22:55:13.325Z,60.77
2018-11-07T22:57:42.151Z,60.93
2018-11-07T23:00:19.062Z,55.67
2018-11-07T23:02:48.637Z,67.83
2018-11-07T23:05:18.099Z,59.93
2018-11-07T23:07:47.120Z,61.73
2018-11-07T23:10:16.337Z,60.30
2018-11-07T23:12:45.209Z,61.63
2018-11-07T23:16:17.107Z,61.83
2018-11-07T23:18:45.906Z,66.63
2018-11-07T23:21:14.820Z,66.23
2018-11-07T23:23:43.676Z,64.00
2018-11-07T23:26:12.566Z,58.30
2018-11-07T23:28:44.279Z,66.87
2018-11-07T23:31:13.199Z,67.17
2018-11-07T23:42:20.292Z,65.50
2018-11-07T23:44:49.149Z,61.47
2018-11-07T23:47:18.047Z,69.37
2018-11-07T23:49:46.984Z,64.50
2018-11-07T23:52:20.937Z,67.23
2018-11-07T23:54:50.257Z,62.07
2018-11-07T23:57:19.113Z,60.50
2018-11-07T23:59:48.134Z,59.23
